createdAt,value
2023-03-20T00:02:08.055Z,0.77
2023-03-20T00:04:36.514Z,0.73
2023-03-20T00:07:10.546Z,0.90
2023-03-20T00:09:38.887Z,0.80
2023-03-20T00:12:07.715Z,0.73
2023-03-20T00:14:36.136Z,1.00
2023-03-20T00:17:12.077Z,0.70
2023-03-20T00:19:40.360Z,0.70
2023-03-20T00:22:11.223Z,0.65
2023-03-20T00:24:39.648Z,0.70
2023-03-20T00:27:08.148Z,0.80
2023-03-20T00:29:36.701Z,0.70
2023-03-20T00:32:05.107Z,0.70
2023-03-20T00:34:33.437Z,0.80
2023-03-20T00:37:01.679Z,0.70
2023-03-20T00:39:32.674Z,0.63
2023-03-20T00:42:06.040Z,0.77
2023-03-20T00:44:37.115Z,0.82
2023-03-20T00:47:11.384Z,0.60
2023-03-20T00:49:39.627Z,0.63
2023-03-20T00:52:09.136Z,0.70
2023-03-20T00:54:38.829Z,0.70
2023-03-20T00:57:12.647Z,0.70
2023-03-20T00:59:54.485Z,0.60
2023-03-20T01:02:24.781Z,0.80
2023-03-20T01:04:53.488Z,0.60
2023-03-20T01:07:22.210Z,0.80
2023-03-20T01:09:52.674Z,0.85
2023-03-20T01:12:21.040Z,0.70
2023-03-20T01:14:53.094Z,0.70
2023-03-20T01:17:25.437Z,0.52
2023-03-20T01:19:54.203Z,0.80
2023-03-20T01:22:22.528Z,0.70
2023-03-20T01:24:52.173Z,0.80
2023-03-20T01:27:22.379Z,0.70
2023-03-20T01:29:50.747Z,0.80
2023-03-20T01:32:20.729Z,0.60
2023-03-20T01:34:51.401Z,0.70
2023-03-20T01:37:26.313Z,0.70
2023-03-20T01:39:57.869Z,0.95
2023-03-20T01:42:26.905Z,0.63
2023-03-20T01:44:55.286Z,0.82
2023-03-20T01:47:26.015Z,0.65
2023-03-20T01:50:22.377Z,0.70
2023-03-20T01:52:56.643Z,0.70
2023-03-20T01:55:27.074Z,0.70
2023-03-20T01:58:05.410Z,0.70
2023-03-20T02:00:36.596Z,0.70
2023-03-20T02:03:08.929Z,0.68
2023-03-20T02:06:13.032Z,0.70
2023-03-20T02:09:02.038Z,0.80
2023-03-20T02:11:39.136Z,0.80
2023-03-20T02:14:09.210Z,0.70
2023-03-20T02:16:50.072Z,0.77
2023-03-20T02:19:32.987Z,0.80
2023-03-20T02:22:26.468Z,0.80
2023-03-20T02:25:34.809Z,0.80
2023-03-20T02:28:42.540Z,0.70
2023-03-20T02:31:49.869Z,0.60
2023-03-20T02:34:42.687Z,0.50
2023-03-20T02:37:45.993Z,0.80
2023-03-20T02:40:26.063Z,0.65
2023-03-20T02:43:04.083Z,0.70
2023-03-20T02:45:36.666Z,0.70
2023-03-20T02:48:27.236Z,0.70
2023-03-20T02:51:02.237Z,0.60
2023-03-20T02:53:44.316Z,0.60
2023-03-20T02:56:19.215Z,0.70
2023-03-20T02:58:52.332Z,0.60
2023-03-20T03:01:25.989Z,0.75
2023-03-20T03:03:58.188Z,0.70
2023-03-20T03:06:30.579Z,0.70
2023-03-20T03:09:06.733Z,0.80
2023-03-20T03:11:39.171Z,0.63
2023-03-20T03:14:08.463Z,0.70
2023-03-20T03:16:39.042Z,0.70
2023-03-20T03:19:10.630Z,0.70
2023-03-20T03:21:41.767Z,0.73
2023-03-20T03:24:39.893Z,0.50
2023-03-20T03:27:18.237Z,0.60
2023-03-20T03:29:52.426Z,0.60
2023-03-20T03:32:26.446Z,0.73
2023-03-20T03:34:55.085Z,0.80
2023-03-20T03:37:33.571Z,0.70
2023-03-20T03:40:13.776Z,0.60
2023-03-20T03:42:49.025Z,0.60
2023-03-20T03:45:23.805Z,0.60
2023-03-20T03:47:55.250Z,0.70
2023-03-20T03:50:27.423Z,0.80
2023-03-20T03:53:02.172Z,0.70
2023-03-20T03:55:37.558Z,0.60
2023-03-20T03:58:12.498Z,0.60
2023-03-20T04:00:43.948Z,0.70
2023-03-20T04:03:13.250Z,0.68
2023-03-20T04:05:45.955Z,0.60
2023-03-20T04:08:16.282Z,0.70
2023-03-20T04:10:46.032Z,0.77
2023-03-20T04:13:14.259Z,0.70
2023-03-20T04:15:42.971Z,0.70
2023-03-20T04:18:16.555Z,0.60
2023-03-20T04:20:46.126Z,0.55
2023-03-20T04:23:14.835Z,0.63
2023-03-20T04:25:45.010Z,0.63
2023-03-20T04:28:16.361Z,0.50
2023-03-20T04:30:54.189Z,0.60
2023-03-20T04:33:57.849Z,0.50
2023-03-20T04:36:44.757Z,0.70
2023-03-20T04:39:15.544Z,0.70
2023-03-20T04:41:45.225Z,0.50
2023-03-20T04:44:13.464Z,0.70
2023-03-20T04:46:44.496Z,0.50
2023-03-20T04:49:17.423Z,0.70
2023-03-20T04:51:45.714Z,0.70
2023-03-20T04:54:15.797Z,0.70
2023-03-20T04:56:46.250Z,0.57
2023-03-20T04:59:18.492Z,0.77
2023-03-20T05:01:46.756Z,0.60
2023-03-20T05:04:15.131Z,0.70
2023-03-20T05:06:43.929Z,0.50
2023-03-20T05:09:12.365Z,0.43
2023-03-20T05:11:41.096Z,0.60
2023-03-20T05:14:28.861Z,0.50
2023-03-20T05:17:19.811Z,0.50
2023-03-20T05:20:13.535Z,0.60
2023-03-20T05:23:03.112Z,0.70
2023-03-20T05:26:01.549Z,0.70
2023-03-20T05:28:48.410Z,0.60
2023-03-20T05:31:36.521Z,0.60
2023-03-20T05:34:13.770Z,0.55
2023-03-20T05:37:00.350Z,0.80
2023-03-20T05:39:48.784Z,0.70
2023-03-20T05:42:35.591Z,0.52
2023-03-20T05:45:18.388Z,0.60
2023-03-20T05:47:47.924Z,0.60
2023-03-20T05:50:45.362Z,0.60
2023-03-20T05:53:30.046Z,0.60
2023-03-20T05:56:10.670Z,0.60
2023-03-20T05:58:42.373Z,0.50
2023-03-20T06:01:46.584Z,0.60
2023-03-20T06:04:29.257Z,0.50
2023-03-20T06:07:20.038Z,0.60
2023-03-20T06:09:57.533Z,0.60
2023-03-20T06:12:27.333Z,0.60
2023-03-20T06:14:56.053Z,0.50
2023-03-20T06:17:24.931Z,0.70
2023-03-20T06:20:01.113Z,0.60
2023-03-20T06:22:30.869Z,0.75
2023-03-20T06:24:59.625Z,0.70
2023-03-20T06:27:36.495Z,0.60
2023-03-20T06:30:06.816Z,0.52
2023-03-20T06:32:37.448Z,0.57
2023-03-20T06:35:11.774Z,0.60
2023-03-20T06:37:44.954Z,0.60
2023-03-20T06:40:18.404Z,0.77
2023-03-20T06:42:46.944Z,0.70
2023-03-20T06:45:16.027Z,0.50
2023-03-20T06:47:52.487Z,0.60
2023-03-20T06:50:22.636Z,0.60
2023-03-20T06:52:51.282Z,0.60
2023-03-20T06:55:38.547Z,0.50
2023-03-20T06:58:07.497Z,0.60
2023-03-20T07:00:37.753Z,0.60
2023-03-20T07:03:08.065Z,0.60
2023-03-20T07:05:40.323Z,0.50
2023-03-20T07:08:10.998Z,0.47
2023-03-20T07:10:39.694Z,0.60
2023-03-20T07:13:08.127Z,0.50
2023-03-20T07:15:38.740Z,0.60
2023-03-20T07:18:08.883Z,0.60
2023-03-20T07:20:38.485Z,0.50
2023-03-20T07:23:07.090Z,0.50
2023-03-20T07:25:42.888Z,0.50
2023-03-20T07:28:16.329Z,0.60
2023-03-20T07:30:51.004Z,0.40
2023-03-20T07:33:20.942Z,0.52
2023-03-20T07:35:53.798Z,0.40
2023-03-20T07:38:22.605Z,0.50
2023-03-20T07:41:03.853Z,0.47
2023-03-20T07:43:32.811Z,0.50
2023-03-20T07:46:04.183Z,0.60
2023-03-20T07:48:32.655Z,0.60
2023-03-20T07:51:02.689Z,0.68
2023-03-20T07:53:31.132Z,0.60
2023-03-20T07:55:59.409Z,0.43
2023-03-20T07:58:27.747Z,0.60
2023-03-20T08:00:58.433Z,0.50
2023-03-20T08:03:27.353Z,0.50
2023-03-20T08:05:55.856Z,0.60
2023-03-20T08:08:25.826Z,0.40
2023-03-20T08:10:54.225Z,0.60
2023-03-20T08:13:22.514Z,0.50
2023-03-20T08:15:51.796Z,0.50
2023-03-20T08:18:22.445Z,0.60
2023-03-20T08:20:50.889Z,0.50
2023-03-20T08:23:20.869Z,0.40
2023-03-20T08:25:52.010Z,0.50
2023-03-20T08:28:20.295Z,0.50
2023-03-20T08:30:48.992Z,0.55
2023-03-20T08:33:19.001Z,0.60
2023-03-20T08:35:57.047Z,0.40
2023-03-20T08:38:25.862Z,0.50
2023-03-20T08:40:55.802Z,0.50
2023-03-20T08:43:24.239Z,0.50
2023-03-20T08:45:53.642Z,0.50
2023-03-20T08:48:22.289Z,0.40
2023-03-20T08:50:50.565Z,0.50
2023-03-20T08:53:21.057Z,0.50
2023-03-20T08:55:50.788Z,0.55
2023-03-20T08:58:21.631Z,0.50
2023-03-20T09:00:49.888Z,0.52
2023-03-20T09:03:20.933Z,0.50
2023-03-20T09:05:51.216Z,0.50
2023-03-20T09:08:19.662Z,0.50
2023-03-20T09:10:52.026Z,0.50
2023-03-20T09:13:27.711Z,0.55
2023-03-20T09:15:57.273Z,0.50
2023-03-20T09:18:26.097Z,0.40
2023-03-20T09:20:56.460Z,0.43
2023-03-20T09:23:24.965Z,0.50
2023-03-20T09:25:53.436Z,0.50
2023-03-20T09:28:23.121Z,0.50
2023-03-20T09:30:51.437Z,0.50
2023-03-20T09:33:19.761Z,0.40
2023-03-20T09:35:48.041Z,0.40
2023-03-20T09:38:16.382Z,0.55
2023-03-20T09:40:53.556Z,0.70
2023-03-20T09:43:37.464Z,0.40
2023-03-20T09:46:17.492Z,0.40
2023-03-20T09:48:54.650Z,0.40
2023-03-20T09:51:31.441Z,0.50
2023-03-20T09:54:05.303Z,0.57
2023-03-20T09:56:34.047Z,0.40
2023-03-20T09:59:06.409Z,0.57
2023-03-20T10:01:42.378Z,0.50
2023-03-20T10:04:12.386Z,0.45
2023-03-20T10:06:41.351Z,0.40
2023-03-20T10:09:18.391Z,0.60
2023-03-20T10:12:10.288Z,0.50
2023-03-20T10:14:54.227Z,0.50
2023-03-20T10:17:41.007Z,0.40
2023-03-20T10:20:15.166Z,0.40
2023-03-20T10:22:47.545Z,0.47
2023-03-20T10:25:25.754Z,0.45
2023-03-20T10:27:59.252Z,0.40
2023-03-20T10:30:53.099Z,0.40
2023-03-20T10:33:31.984Z,0.50
2023-03-20T10:36:11.228Z,0.40
2023-03-20T10:38:47.417Z,0.40
2023-03-20T10:41:19.247Z,0.40
2023-03-20T10:43:50.590Z,0.40
2023-03-20T10:46:23.420Z,0.50
2023-03-20T10:48:58.194Z,0.50
2023-03-20T10:51:37.716Z,0.40
2023-03-20T10:54:09.155Z,0.55
2023-03-20T10:56:40.439Z,0.43
2023-03-20T10:59:13.516Z,0.50
2023-03-20T11:01:43.205Z,0.40
2023-03-20T11:04:11.470Z,0.43
2023-03-20T11:06:45.818Z,0.55
2023-03-20T11:09:20.399Z,0.40
2023-03-20T11:11:50.346Z,0.45
2023-03-20T11:14:21.030Z,0.43
2023-03-20T11:16:52.590Z,0.40
2023-03-20T11:19:22.344Z,0.40
2023-03-20T11:21:52.757Z,0.50
2023-03-20T11:24:31.149Z,0.40
2023-03-20T11:27:08.138Z,0.40
2023-03-20T11:29:37.109Z,0.30
2023-03-20T11:32:17.234Z,0.40
2023-03-20T11:34:46.034Z,0.40
2023-03-20T11:37:26.050Z,0.40
2023-03-20T11:40:08.495Z,0.40
2023-03-20T11:42:37.308Z,0.50
2023-03-20T11:45:07.360Z,0.40
2023-03-20T11:47:37.536Z,0.38
2023-03-20T11:50:08.505Z,0.40
2023-03-20T11:52:39.294Z,0.30
2023-03-20T11:55:26.709Z,0.40
2023-03-20T11:57:59.037Z,0.40
2023-03-20T12:00:30.450Z,0.30
2023-03-20T12:03:00.063Z,0.30
2023-03-20T12:05:34.018Z,0.40
2023-03-20T12:08:07.080Z,0.32
2023-03-20T12:10:39.528Z,0.32
2023-03-20T12:13:14.754Z,0.40
2023-03-20T12:15:46.660Z,0.50
2023-03-20T12:18:21.696Z,0.30
2023-03-20T12:21:04.030Z,0.40
2023-03-20T12:23:35.831Z,0.40
2023-03-20T12:26:07.431Z,0.40
2023-03-20T12:28:42.648Z,0.40
2023-03-20T12:31:23.316Z,0.47
2023-03-20T12:33:59.685Z,0.40
2023-03-20T12:36:33.193Z,0.40
2023-03-20T12:39:04.991Z,0.38
2023-03-20T12:41:42.105Z,0.40
2023-03-20T12:44:22.011Z,0.40
2023-03-20T12:47:01.624Z,0.30
2023-03-20T12:49:41.798Z,0.40
2023-03-20T12:52:16.288Z,0.30
2023-03-20T12:55:01.590Z,0.40
2023-03-20T12:57:37.271Z,0.40
2023-03-20T13:00:23.209Z,0.40
2023-03-20T13:03:01.255Z,0.40
2023-03-20T13:05:40.994Z,0.47
2023-03-20T13:08:37.806Z,0.40
2023-03-20T13:11:16.952Z,0.40
2023-03-20T13:13:51.338Z,0.30
2023-03-20T13:16:28.698Z,0.40
2023-03-20T13:19:03.310Z,0.30
2023-03-20T13:21:38.385Z,0.40
2023-03-20T13:24:32.065Z,0.30
2023-03-20T13:27:07.034Z,0.52
2023-03-20T13:29:46.072Z,0.30
2023-03-20T13:32:23.232Z,0.38
2023-03-20T13:35:21.191Z,0.40
2023-03-20T13:37:54.214Z,0.40
2023-03-20T13:40:25.723Z,0.40
2023-03-20T13:42:58.691Z,0.40
2023-03-20T13:45:35.266Z,0.28
2023-03-20T13:48:12.103Z,0.30
2023-03-20T13:50:46.965Z,0.35
2023-03-20T13:53:29.808Z,0.43
2023-03-20T13:56:06.265Z,0.30
2023-03-20T13:58:49.876Z,0.30
2023-03-20T14:01:23.242Z,0.30
2023-03-20T14:03:52.669Z,0.40
2023-03-20T14:06:48.774Z,0.50
2023-03-20T14:09:32.107Z,0.30
2023-03-20T14:12:12.108Z,0.32
2023-03-20T14:14:47.545Z,0.30
2023-03-20T14:17:19.514Z,0.30
2023-03-20T14:19:48.733Z,0.30
2023-03-20T14:22:20.988Z,0.40
2023-03-20T14:24:57.692Z,0.30
2023-03-20T14:27:45.123Z,0.40
2023-03-20T14:30:52.314Z,0.30
2023-03-20T14:33:31.259Z,0.40
2023-03-20T14:36:20.834Z,0.40
2023-03-20T14:38:56.682Z,0.40
2023-03-20T14:41:31.518Z,0.30
2023-03-20T14:44:16.475Z,0.38
2023-03-20T14:46:52.131Z,0.30
2023-03-20T14:49:46.826Z,0.25
2023-03-20T14:52:28.767Z,0.50
2023-03-20T14:55:16.981Z,0.40
2023-03-20T14:57:56.091Z,0.30
2023-03-20T15:00:28.188Z,0.30
2023-03-20T15:03:06.463Z,0.40
2023-03-20T15:05:37.389Z,0.38
2023-03-20T15:08:09.499Z,0.40
2023-03-20T15:10:47.607Z,0.32
2023-03-20T15:13:17.248Z,0.35
2023-03-20T15:15:55.266Z,0.40
2023-03-20T15:18:24.846Z,0.30
2023-03-20T15:20:54.968Z,0.30
2023-03-20T15:23:23.215Z,0.30
2023-03-20T15:25:53.037Z,0.45
2023-03-20T15:28:24.588Z,0.40
2023-03-20T15:30:54.862Z,0.32
2023-03-20T15:33:28.039Z,0.40
2023-03-20T15:35:56.945Z,0.30
2023-03-20T15:38:36.204Z,0.43
2023-03-20T15:41:08.341Z,0.40
2023-03-20T15:43:38.201Z,0.30
2023-03-20T15:46:17.883Z,0.40
2023-03-20T15:48:50.382Z,0.32
2023-03-20T15:51:20.237Z,0.30
2023-03-20T15:53:50.032Z,0.30
2023-03-20T15:56:23.817Z,0.40
2023-03-20T15:58:53.464Z,0.38
2023-03-20T16:01:23.927Z,0.40
2023-03-20T16:03:53.222Z,0.30
2023-03-20T16:06:23.329Z,0.30
2023-03-20T16:08:59.863Z,0.30
2023-03-20T16:11:38.489Z,0.30
2023-03-20T16:14:08.208Z,0.25
2023-03-20T16:16:37.747Z,0.30
2023-03-20T16:19:07.179Z,0.40
2023-03-20T16:21:38.385Z,0.38
2023-03-20T16:24:11.393Z,0.30
2023-03-20T16:26:45.251Z,0.30
2023-03-20T16:29:15.945Z,0.40
2023-03-20T16:31:49.935Z,0.30
2023-03-20T16:34:22.052Z,0.35
2023-03-20T16:36:54.173Z,0.30
2023-03-20T16:39:25.637Z,0.30
2023-03-20T16:42:12.257Z,0.30
2023-03-20T16:44:42.623Z,0.30
2023-03-20T16:47:20.075Z,0.40
2023-03-20T16:50:20.810Z,0.30
2023-03-20T16:52:57.216Z,0.30
2023-03-20T16:55:29.271Z,0.40
2023-03-20T16:58:02.286Z,0.40
2023-03-20T17:00:32.948Z,0.30
2023-03-20T17:03:14.728Z,0.30
2023-03-20T17:05:52.773Z,0.38
2023-03-20T17:08:29.566Z,0.40
2023-03-20T17:11:01.103Z,0.40
2023-03-20T17:13:30.964Z,0.32
2023-03-20T17:16:01.966Z,0.40
2023-03-20T17:18:31.011Z,0.35
2023-03-20T17:20:59.244Z,0.30
2023-03-20T17:23:27.693Z,0.30
2023-03-20T17:25:55.933Z,0.40
2023-03-20T17:28:27.045Z,0.30
2023-03-20T17:30:56.659Z,0.43
2023-03-20T17:33:24.947Z,0.30
2023-03-20T17:35:54.131Z,0.30
2023-03-20T17:38:23.639Z,0.40
2023-03-20T17:40:53.033Z,0.38
2023-03-20T17:43:21.613Z,0.30
2023-03-20T17:45:50.028Z,0.40
2023-03-20T17:48:21.859Z,0.32
2023-03-20T17:50:51.567Z,0.30
2023-03-20T17:53:21.728Z,0.30
2023-03-20T17:55:50.113Z,0.55
2023-03-20T17:58:21.914Z,0.30
2023-03-20T18:00:50.561Z,0.47
2023-03-20T18:03:20.570Z,0.30
2023-03-20T18:05:51.071Z,0.30
2023-03-20T18:08:22.178Z,0.40
2023-03-20T18:10:51.914Z,0.45
2023-03-20T18:13:21.269Z,0.30
2023-03-20T18:15:51.430Z,0.38
2023-03-20T18:18:23.946Z,0.30
2023-03-20T18:20:54.754Z,0.35
2023-03-20T18:23:23.138Z,0.40
2023-03-20T18:25:51.403Z,0.32
2023-03-20T18:28:23.222Z,0.30
2023-03-20T18:30:52.622Z,0.50
2023-03-20T18:33:26.634Z,0.40
2023-03-20T18:35:55.236Z,0.40
2023-03-20T18:38:25.658Z,0.40
2023-03-20T18:40:54.052Z,0.30
2023-03-20T18:43:22.427Z,0.30
2023-03-20T18:45:50.779Z,0.40
2023-03-20T18:48:19.251Z,0.40
2023-03-20T18:50:50.938Z,0.30
2023-03-20T18:53:19.641Z,0.35
2023-03-20T18:55:47.907Z,0.40
2023-03-20T18:58:22.642Z,0.50
2023-03-20T19:00:52.743Z,0.40
2023-03-20T19:03:23.747Z,0.30
2023-03-20T19:05:54.246Z,0.30
2023-03-20T19:08:22.919Z,0.30
2023-03-20T19:10:51.558Z,0.40
2023-03-20T19:13:21.582Z,0.30
2023-03-20T19:15:49.997Z,0.40
2023-03-20T19:18:20.369Z,0.40
2023-03-20T19:20:50.106Z,0.40
2023-03-20T19:23:21.294Z,0.40
2023-03-20T19:25:51.216Z,0.30
2023-03-20T19:28:37.674Z,0.40
2023-03-20T19:31:08.221Z,0.40
2023-03-20T19:33:36.717Z,0.30
2023-03-20T19:36:06.480Z,0.40
2023-03-20T19:38:37.091Z,0.30
2023-03-20T19:41:05.736Z,0.38
2023-03-20T19:43:42.609Z,0.38
2023-03-20T19:46:38.170Z,0.40
2023-03-20T19:49:07.353Z,0.40
2023-03-20T19:51:35.626Z,0.40
2023-03-20T19:54:05.552Z,0.50
2023-03-20T19:56:34.615Z,0.38
2023-03-20T19:59:03.210Z,0.40
2023-03-20T20:01:31.629Z,0.38
2023-03-20T20:03:59.981Z,0.40
2023-03-20T20:06:32.158Z,0.30
2023-03-20T20:09:01.584Z,0.40
2023-03-20T20:11:31.257Z,0.30
2023-03-20T20:14:09.112Z,0.40
2023-03-20T20:16:39.946Z,0.40
2023-03-20T20:19:08.626Z,0.40
2023-03-20T20:24:25.196Z,0.40
2023-03-20T20:27:14.594Z,0.32
2023-03-20T20:29:47.196Z,0.40
2023-03-20T20:32:18.930Z,0.40
2023-03-20T20:40:28.445Z,0.40
2023-03-20T20:43:01.712Z,0.38
2023-03-20T20:45:31.755Z,0.40
2023-03-20T20:48:00.615Z,0.30
2023-03-20T20:50:30.540Z,0.30
2023-03-20T20:53:00.523Z,0.52
2023-03-20T20:55:28.790Z,0.40
2023-03-20T20:57:59.098Z,0.40
2023-03-20T21:00:45.754Z,0.40
2023-03-20T21:03:16.644Z,0.40
2023-03-20T21:05:45.125Z,0.40
2023-03-20T21:08:14.528Z,0.40
2023-03-20T21:10:45.233Z,0.40
2023-03-20T21:13:15.455Z,0.30
2023-03-20T21:15:45.520Z,0.40
2023-03-20T21:18:14.491Z,0.40
2023-03-20T21:20:42.945Z,0.40
2023-03-20T21:23:11.766Z,0.40
2023-03-20T21:25:43.550Z,0.40
2023-03-20T21:28:15.277Z,0.40
2023-03-20T21:31:08.628Z,0.40
2023-03-20T21:33:32.706Z,0.40
2023-03-20T21:36:01.075Z,0.30
2023-03-20T21:39:01.980Z,0.35
2023-03-20T21:41:18.044Z,0.40
2023-03-20T21:43:47.844Z,0.30
2023-03-20T21:46:54.377Z,0.40
2023-03-20T22:03:28.797Z,0.30
2023-03-20T22:23:41.131Z,0.30
2023-03-20T22:26:44.322Z,0.30
2023-03-20T22:29:32.347Z,0.40
2023-03-20T22:32:33.333Z,0.40
2023-03-20T22:35:08.990Z,0.40
2023-03-20T22:38:12.865Z,0.40
2023-03-20T22:43:15.117Z,0.50
2023-03-20T22:45:42.698Z,0.43
2023-03-20T22:48:15.781Z,0.50
2023-03-20T22:50:45.749Z,0.38
2023-03-20T22:53:14.023Z,0.40
2023-03-20T22:55:44.163Z,0.40
2023-03-20T22:58:12.864Z,0.40
2023-03-20T23:00:41.732Z,0.47
2023-03-20T23:03:25.662Z,0.60
2023-03-20T23:06:06.144Z,0.40
2023-03-20T23:08:42.362Z,0.50
2023-03-20T23:11:17.666Z,0.45
2023-03-20T23:13:46.576Z,0.43
2023-03-20T23:16:14.980Z,0.40
2023-03-20T23:18:43.598Z,0.50
2023-03-20T23:21:13.449Z,0.60
2023-03-20T23:23:41.850Z,0.50
2023-03-20T23:26:12.682Z,0.47
2023-03-20T23:28:42.246Z,0.40
2023-03-20T23:31:12.550Z,0.43
2023-03-20T23:33:41.045Z,0.40
2023-03-20T23:36:19.020Z,0.50
2023-03-20T23:38:51.393Z,0.40
2023-03-20T23:41:20.117Z,0.50
2023-03-20T23:43:48.393Z,0.47
2023-03-20T23:46:16.698Z,0.40
2023-03-20T23:48:44.991Z,0.40
2023-03-20T23:51:13.402Z,0.60
2023-03-20T23:53:41.771Z,0.50
2023-03-20T23:56:13.385Z,0.50
2023-03-20T23:58:47.577Z,0.50
